Hovedside
METAR-TAF:

METAR-TAF

Lufthavner :

Riga, Latvia

Riga internasjonale lufthavn

breddegrad: 56-55N, lengdegrad: 023-58E, høyde over havet: 10 m

Gjeldene værobservasjon

Denne rapporten ble laget for 17 minutter siden, klokken 07:20 UTC
Vind 5 kt fra Øst, skiftende mellom Øst-nordøst og Sør-sørøst
Temperatur -1°C
Luftfuktighet 86%
Trykk 1030 hPa
Sikt 10 km eller mer
ingen skyer under 1500 m og ingen bygeskyer

METAR: EVRA 240720Z 10005KT 060V150 CAVOK M01/M03 Q1030 R18/090095 NOSIG

Tid: 10:37 (07:37 UTC)

Varsel

Denne rapporten ble laget for 2 timer og 34 minutter siden, klokken 05:03 UTC
Varsel gyldig fra 24. klokken 06 UTC til 25. klokken 06 UTC
Vind 7 kt fra Øst
Sikt 10 km eller mer
Spredte skyer i en høyde av 3000 ft
Sannsynlighet 40% :
Midlertidig
fra 24. klokken 06 UTC til 24. klokken 09 UTC
Sikt: 3000 m
Brutte skyer i en høyde av 500 ft
dis

TAF: EVRA 240503Z 2406/2506 09007KT 9999 SCT030 PROB40 TEMPO 2406/2409 3000 BR BKN005

Værobservasjoner og værvarsel for over 4000 flyplasser (METAR- og TAF-rapporter).

Tilgjengelige stasjoner er representert av de røde og gule prikkene på kartet.

Hold musepekeren over prikken for å se navnet på stasjonen.

Klikk så for å se værobservasjoner og -varsler.

For å forandre kartet kan du klikke på den grønne knappen med svart kryss for å zoome inn, på den grønne knappen med strek for å zoome ut, eller på de grønne pilene for å se tilstøtende kart.


METAR-TAF: